createdAt,value
2022-11-24T00:00:11.447Z,99734.64
2022-11-24T00:03:11.507Z,99729.54
2022-11-24T00:05:48.428Z,99728.02
2022-11-24T00:08:30.951Z,99731.40
2022-11-24T00:11:07.191Z,99741.49
2022-11-24T00:13:40.227Z,99740.13
2022-11-24T00:16:19.179Z,99741.48
2022-11-24T00:18:58.125Z,99734.48
2022-11-24T00:21:30.569Z,99730.80
2022-11-24T00:24:00.990Z,99735.16
2022-11-24T00:26:37.355Z,99736.77
2022-11-24T00:29:17.000Z,99737.15
2022-11-24T00:31:53.830Z,99735.55
2022-11-24T00:34:24.095Z,99732.56
2022-11-24T00:36:51.468Z,99732.64
2022-11-24T00:39:31.546Z,99742.38
2022-11-24T00:42:18.341Z,99746.80
2022-11-24T00:44:52.766Z,99744.39
2022-11-24T00:47:38.689Z,99740.16
2022-11-24T00:50:21.108Z,99737.11
2022-11-24T00:52:58.302Z,99734.34
2022-11-24T00:55:34.072Z,99729.00
2022-11-24T00:58:18.212Z,99730.30
2022-11-24T01:00:57.049Z,99733.66
2022-11-24T01:03:29.842Z,99734.60
2022-11-24T01:06:16.226Z,99733.70
2022-11-24T01:08:53.039Z,99731.92
2022-11-24T01:11:49.464Z,99733.64
2022-11-24T01:14:25.990Z,99731.89
2022-11-24T01:17:06.125Z,99732.78
2022-11-24T01:19:37.858Z,99728.14
2022-11-24T01:22:25.622Z,99729.70
2022-11-24T01:25:02.540Z,99730.94
2022-11-24T01:27:53.830Z,99731.77
2022-11-24T01:30:37.686Z,99733.83
2022-11-24T01:33:09.076Z,99737.81
2022-11-24T01:35:50.087Z,99737.27
2022-11-24T01:38:41.358Z,99733.57
2022-11-24T01:41:18.107Z,99735.81
2022-11-24T01:43:57.652Z,99735.23
2022-11-24T01:46:48.062Z,99733.71
2022-11-24T01:49:18.521Z,99731.98
2022-11-24T01:52:18.176Z,99731.04
2022-11-24T01:55:09.377Z,99730.41
2022-11-24T01:57:50.086Z,99735.81
2022-11-24T02:00:18.692Z,99738.52
2022-11-24T02:02:47.079Z,99738.41
2022-11-24T02:05:30.527Z,99737.88
2022-11-24T02:08:13.637Z,99734.09
2022-11-24T02:11:00.850Z,99735.92
2022-11-24T02:13:47.459Z,99732.98
2022-11-24T02:16:32.069Z,99730.38
2022-11-24T02:19:46.222Z,99731.37
2022-11-24T02:22:44.586Z,99730.35
2022-11-24T02:25:42.808Z,99729.97
2022-11-24T02:28:20.591Z,99727.76
2022-11-24T02:30:50.493Z,99725.02
2022-11-24T02:33:26.144Z,99729.98
2022-11-24T02:35:59.490Z,99725.38
2022-11-24T02:38:45.000Z,99724.98
2022-11-24T02:41:23.865Z,99722.56
2022-11-24T02:44:05.616Z,99724.33
2022-11-24T02:46:36.783Z,99725.65
2022-11-24T02:49:20.435Z,99718.68
2022-11-24T02:52:10.822Z,99718.51
2022-11-24T02:54:46.381Z,99723.14
2022-11-24T02:57:13.893Z,99724.60
2022-11-24T03:00:01.760Z,99721.27
2022-11-24T03:02:57.403Z,99722.70
2022-11-24T03:05:47.919Z,99724.40
2022-11-24T03:08:30.569Z,99723.77
2022-11-24T03:11:10.470Z,99724.52
2022-11-24T03:13:38.178Z,99722.45
2022-11-24T03:16:15.354Z,99723.65
2022-11-24T03:18:48.044Z,99725.89
2022-11-24T03:21:28.688Z,99722.78
2022-11-24T03:24:05.716Z,99725.40
2022-11-24T03:26:39.253Z,99727.36
2022-11-24T03:29:35.915Z,99726.48
2022-11-24T03:32:12.763Z,99727.41
2022-11-24T03:34:45.390Z,99725.55
2022-11-24T03:38:02.029Z,99729.17
2022-11-24T03:40:37.354Z,99729.89
2022-11-24T03:43:19.364Z,99728.88
2022-11-24T03:45:56.326Z,99737.30
2022-11-24T03:48:40.015Z,99738.15
2022-11-24T03:51:11.581Z,99736.16
2022-11-24T03:53:45.164Z,99737.97
2022-11-24T03:56:17.517Z,99740.98
2022-11-24T03:59:02.936Z,99742.40
2022-11-24T04:01:35.617Z,99744.85
2022-11-24T04:04:03.253Z,99742.77
2022-11-24T04:06:59.936Z,99747.98
2022-11-24T04:09:27.366Z,99745.35
2022-11-24T04:12:23.340Z,99746.94
2022-11-24T04:14:51.224Z,99742.69
2022-11-24T04:17:40.978Z,99737.55
2022-11-24T04:20:17.446Z,99733.46
2022-11-24T04:23:12.698Z,99739.60
2022-11-24T04:25:44.884Z,99740.95
2022-11-24T04:28:21.115Z,99743.38
2022-11-24T04:31:02.758Z,99743.00
2022-11-24T04:33:30.851Z,99741.30
2022-11-24T04:36:06.855Z,99748.71
2022-11-24T04:39:25.984Z,99751.85
2022-11-24T04:41:46.627Z,99757.33
2022-11-24T04:44:18.839Z,99758.20
2022-11-24T04:46:56.816Z,99756.90
2022-11-24T04:49:44.716Z,99756.35
2022-11-24T04:52:17.471Z,99761.64
2022-11-24T04:55:01.905Z,99756.86
2022-11-24T04:57:37.961Z,99760.12
2022-11-24T05:00:06.616Z,99763.11
2022-11-24T05:02:38.441Z,99768.04
2022-11-24T05:05:14.866Z,99770.05
2022-11-24T05:07:47.116Z,99777.27
2022-11-24T05:10:38.085Z,99781.46
2022-11-24T05:13:20.502Z,99781.52
2022-11-24T05:16:01.837Z,99777.88
2022-11-24T05:18:44.159Z,99772.13
2022-11-24T05:21:28.752Z,99770.10
2022-11-24T05:24:10.560Z,99767.75
2022-11-24T05:26:54.402Z,99771.48
2022-11-24T05:29:27.468Z,99776.08
2022-11-24T05:32:01.896Z,99776.60
2022-11-24T05:34:34.106Z,99782.70
2022-11-24T05:37:04.833Z,99786.95
2022-11-24T05:39:40.501Z,99787.84
2022-11-24T05:42:26.070Z,99789.30
2022-11-24T05:44:57.314Z,99793.02
2022-11-24T05:47:40.836Z,99790.02
2022-11-24T05:50:34.765Z,99790.14
2022-11-24T05:53:13.914Z,99793.11
2022-11-24T05:56:02.345Z,99793.29
2022-11-24T05:58:44.804Z,99800.73
2022-11-24T06:01:37.450Z,99800.09
2022-11-24T06:04:14.234Z,99805.56
2022-11-24T06:07:06.430Z,99804.65
2022-11-24T06:09:44.022Z,99804.44
2022-11-24T06:12:24.699Z,99806.50
2022-11-24T06:18:07.987Z,99808.91
2022-11-24T06:20:57.622Z,99813.02
2022-11-24T06:23:40.503Z,99812.86
2022-11-24T06:26:09.241Z,99815.66
2022-11-24T06:28:58.568Z,99811.98
2022-11-24T06:31:42.481Z,99816.64
2022-11-24T06:34:50.478Z,99816.64
2022-11-24T06:37:34.565Z,99816.95
2022-11-24T06:40:14.317Z,99816.23
2022-11-24T06:42:59.502Z,99820.08
2022-11-24T06:45:57.489Z,99824.34
2022-11-24T06:48:55.415Z,99829.25
2022-11-24T06:52:06.421Z,99829.23
2022-11-24T06:54:49.314Z,99821.27
2022-11-24T06:57:23.698Z,99818.35
2022-11-24T07:00:42.495Z,99818.42
2022-11-24T07:03:19.302Z,99825.55
2022-11-24T07:06:01.007Z,99826.24
2022-11-24T07:08:43.565Z,99825.98
2022-11-24T07:11:30.864Z,99826.94
2022-11-24T07:14:34.086Z,99827.40
2022-11-24T07:17:13.850Z,99829.14
2022-11-24T07:19:51.153Z,99836.66
2022-11-24T07:22:41.591Z,99841.56
2022-11-24T07:25:29.464Z,99841.88
2022-11-24T07:28:33.905Z,99841.88
2022-11-24T07:31:18.895Z,99844.83
2022-11-24T07:33:57.832Z,99844.61
2022-11-24T07:36:54.558Z,99847.08
2022-11-24T07:39:34.509Z,99843.14
2022-11-24T07:42:33.982Z,99840.02
2022-11-24T07:45:10.589Z,99842.46
2022-11-24T07:47:44.205Z,99836.88
2022-11-24T07:50:59.463Z,99840.56
2022-11-24T07:53:56.800Z,99843.55
2022-11-24T07:56:58.426Z,99847.80
2022-11-24T07:59:52.443Z,99857.23
2022-11-24T08:02:39.094Z,99858.48
2022-11-24T08:05:26.286Z,99861.45
2022-11-24T08:08:07.025Z,99861.65
2022-11-24T08:10:59.077Z,99867.54
2022-11-24T08:13:40.669Z,99867.23
2022-11-24T08:16:35.455Z,99864.75
2022-11-24T08:19:14.315Z,99863.10
2022-11-24T08:21:48.071Z,99867.40
2022-11-24T08:24:27.869Z,99861.69
2022-11-24T08:31:07.160Z,99867.77
2022-11-24T08:33:46.467Z,99870.87
2022-11-24T08:36:36.403Z,99870.95
2022-11-24T08:39:14.239Z,99868.61
2022-11-24T08:41:49.681Z,99871.34
2022-11-24T08:44:27.303Z,99874.21
2022-11-24T08:47:06.895Z,99871.96
2022-11-24T08:49:34.611Z,99872.59
2022-11-24T08:52:02.612Z,99872.58
2022-11-24T08:54:33.479Z,99873.31
2022-11-24T08:57:09.132Z,99875.91
2022-11-24T08:59:40.951Z,99875.91
2022-11-24T09:02:16.560Z,99869.07
2022-11-24T09:05:01.201Z,99868.46
2022-11-24T09:07:50.519Z,99882.69
2022-11-24T09:10:32.177Z,99890.55
2022-11-24T09:13:05.707Z,99889.34
2022-11-24T09:15:35.291Z,99895.17
2022-11-24T09:18:04.447Z,99892.83
2022-11-24T09:23:18.461Z,99894.09
2022-11-24T09:25:46.044Z,99894.95
2022-11-24T09:28:13.710Z,99899.45
2022-11-24T09:30:40.900Z,99899.38
2022-11-24T09:33:08.166Z,99901.59
2022-11-24T09:35:38.798Z,99906.13
2022-11-24T09:38:06.173Z,99907.42
2022-11-24T09:40:33.577Z,99908.20
2022-11-24T09:43:13.889Z,99910.20
2022-11-24T09:46:06.567Z,99914.89
2022-11-24T09:48:42.783Z,99918.27
2022-11-24T09:51:15.259Z,99914.30
2022-11-24T09:53:48.426Z,99916.73
2022-11-24T09:56:40.447Z,99915.16
2022-11-24T09:59:16.438Z,99916.05
2022-11-24T10:01:45.905Z,99916.20
2022-11-24T10:04:27.363Z,99915.96
2022-11-24T10:07:22.858Z,99915.84
2022-11-24T10:10:19.788Z,99922.76
2022-11-24T10:13:00.193Z,99918.33
2022-11-24T10:15:30.246Z,99918.34
2022-11-24T10:18:07.657Z,99916.22
2022-11-24T10:20:54.630Z,99908.90
2022-11-24T10:23:38.348Z,99907.75
2022-11-24T10:26:20.094Z,99906.20
2022-11-24T10:28:55.857Z,99910.61
2022-11-24T10:31:36.305Z,99911.02
2022-11-24T10:34:22.915Z,99909.88
2022-11-24T10:37:12.039Z,99907.41
2022-11-24T10:40:00.673Z,99903.83
2022-11-24T10:42:36.349Z,99908.25
2022-11-24T10:45:15.786Z,99905.44
2022-11-24T10:47:47.189Z,99909.23
2022-11-24T10:50:35.884Z,99912.70
2022-11-24T10:53:09.179Z,99909.48
2022-11-24T10:55:57.298Z,99911.45
2022-11-24T10:58:37.393Z,99914.52
2022-11-24T11:01:16.602Z,99913.00
2022-11-24T11:03:50.654Z,99913.62
2022-11-24T11:06:27.265Z,99911.88
2022-11-24T11:09:06.771Z,99912.70
2022-11-24T11:11:37.341Z,99912.08
2022-11-24T11:14:07.387Z,99914.98
2022-11-24T11:16:36.978Z,99917.23
2022-11-24T11:19:47.953Z,99918.05
2022-11-24T11:22:12.205Z,99917.15
2022-11-24T11:24:42.122Z,99921.11
2022-11-24T11:27:21.362Z,99921.98
2022-11-24T11:35:39.497Z,99925.27
2022-11-24T11:38:07.014Z,99929.13
2022-11-24T11:40:34.612Z,99931.31
2022-11-24T11:43:16.502Z,99932.76
2022-11-24T11:45:46.048Z,99935.66
2022-11-24T11:48:25.047Z,99938.62
2022-11-24T11:51:29.543Z,99943.39
2022-11-24T11:54:03.109Z,99943.74
2022-11-24T11:56:44.808Z,99943.80
2022-11-24T11:59:26.281Z,99943.27
2022-11-24T12:02:29.247Z,99944.70
2022-11-24T12:05:14.348Z,99945.34
2022-11-24T12:08:08.051Z,99943.61
2022-11-24T12:10:56.306Z,99942.09
2022-11-24T12:13:29.979Z,99944.08
2022-11-24T12:16:09.423Z,99940.53
2022-11-24T12:19:06.810Z,99939.24
2022-11-24T12:22:12.668Z,99938.17
2022-11-24T12:25:22.327Z,99936.34
2022-11-24T12:28:11.917Z,99938.98
2022-11-24T12:31:26.007Z,99935.61
2022-11-24T12:34:01.561Z,99937.50
2022-11-24T12:36:52.688Z,99936.45
2022-11-24T12:40:03.384Z,99935.52
2022-11-24T12:42:30.481Z,99932.95
2022-11-24T12:45:09.563Z,99932.34
2022-11-24T12:48:09.909Z,99931.56
2022-11-24T12:50:49.163Z,99928.66
2022-11-24T12:53:32.479Z,99927.27
2022-11-24T12:56:13.594Z,99925.94
2022-11-24T12:59:36.044Z,99925.28
2022-11-24T13:03:07.565Z,99924.52
2022-11-24T13:05:59.387Z,99926.38
2022-11-24T13:15:45.221Z,99927.64
2022-11-24T13:18:51.755Z,99928.60
2022-11-24T13:21:52.174Z,99930.25
2022-11-24T13:24:27.312Z,99930.45
2022-11-24T13:27:16.252Z,99929.89
2022-11-24T13:29:50.239Z,99931.34
2022-11-24T13:32:20.379Z,99928.15
2022-11-24T13:34:55.179Z,99926.93
2022-11-24T13:37:35.061Z,99930.90
2022-11-24T13:40:14.754Z,99933.15
2022-11-24T13:43:01.751Z,99936.27
2022-11-24T13:45:40.800Z,99940.83
2022-11-24T13:48:24.106Z,99939.90
2022-11-24T13:50:58.883Z,99940.45
2022-11-24T13:53:41.263Z,99939.77
2022-11-24T13:56:19.060Z,99940.23
2022-11-24T13:59:01.640Z,99942.52
2022-11-24T14:01:43.106Z,99941.67
2022-11-24T14:04:35.743Z,99945.58
2022-11-24T14:07:13.660Z,99948.58
2022-11-24T14:09:48.626Z,99955.60
2022-11-24T14:12:28.438Z,99954.99
2022-11-24T14:15:29.961Z,99955.50
2022-11-24T14:18:04.195Z,99953.59
2022-11-24T14:20:33.948Z,99954.25
2022-11-24T14:23:04.411Z,99953.49
2022-11-24T14:25:36.342Z,99957.14
2022-11-24T14:28:25.678Z,99958.64
2022-11-24T14:31:32.528Z,99960.58
2022-11-24T14:34:20.096Z,99965.55
2022-11-24T14:36:51.295Z,99972.34
2022-11-24T14:39:31.924Z,99975.37
2022-11-24T14:42:11.670Z,99976.28
2022-11-24T14:45:00.982Z,99980.60
2022-11-24T14:47:38.001Z,99978.29
2022-11-24T14:50:12.696Z,99980.22
2022-11-24T14:53:00.526Z,99980.98
2022-11-24T14:55:32.151Z,99983.64
2022-11-24T14:58:01.680Z,99987.95
2022-11-24T15:00:36.268Z,99986.75
2022-11-24T15:07:00.136Z,99986.46
2022-11-24T15:10:20.999Z,99991.14
2022-11-24T15:14:53.868Z,99992.73
2022-11-24T15:22:47.882Z,100000.32
2022-11-24T15:25:49.034Z,100006.14
2022-11-24T15:28:29.493Z,100017.61
2022-11-24T15:31:09.748Z,100022.98
2022-11-24T15:33:39.980Z,100026.45
2022-11-24T15:36:18.417Z,100026.29
2022-11-24T15:38:54.344Z,100026.54
2022-11-24T15:41:37.904Z,100027.25
2022-11-24T15:44:15.912Z,100026.96
2022-11-24T15:47:12.577Z,100026.80
2022-11-24T15:50:41.387Z,100031.27
2022-11-24T15:54:10.984Z,100029.33
2022-11-24T15:56:58.235Z,100031.12
2022-11-24T15:59:56.686Z,100034.52
2022-11-24T16:03:45.025Z,100035.38
2022-11-24T16:06:29.409Z,100037.17
2022-11-24T16:09:22.062Z,100035.17
2022-11-24T16:12:19.505Z,100042.45
2022-11-24T16:15:54.550Z,100046.61
2022-11-24T16:23:08.848Z,100051.16
2022-11-24T16:26:09.326Z,100047.80
2022-11-24T16:39:17.519Z,100060.18
2022-11-24T16:41:55.595Z,100064.73
2022-11-24T16:49:05.771Z,100075.23
2022-11-24T16:52:13.661Z,100078.27
2022-11-24T16:58:43.483Z,100087.20
2022-11-24T17:01:26.742Z,100085.78
2022-11-24T17:03:59.376Z,100085.03
2022-11-24T17:06:54.852Z,100091.04
2022-11-24T17:09:42.844Z,100093.55
2022-11-24T17:21:02.074Z,100093.39
2022-11-24T17:24:07.112Z,100096.86
2022-11-24T17:35:10.318Z,100111.02
2022-11-24T17:54:54.824Z,100136.73
2022-11-24T17:58:18.084Z,100142.11
2022-11-24T18:01:16.240Z,100143.21
2022-11-24T18:04:15.293Z,100145.12
2022-11-24T18:06:57.314Z,100139.80
2022-11-24T18:09:54.294Z,100141.30
2022-11-24T18:12:55.537Z,100140.37
2022-11-24T18:15:36.279Z,100142.95
2022-11-24T18:18:40.255Z,100147.98
2022-11-24T18:21:40.566Z,100146.09
2022-11-24T18:24:25.289Z,100144.10
2022-11-24T18:27:04.909Z,100145.27
2022-11-24T18:30:20.616Z,100143.41
2022-11-24T18:36:17.626Z,100139.63
2022-11-24T18:39:32.240Z,100138.84
2022-11-24T18:42:18.965Z,100140.48
2022-11-24T18:44:52.678Z,100139.61
2022-11-24T18:47:29.084Z,100140.80
2022-11-24T18:50:26.969Z,100143.68
2022-11-24T18:52:57.358Z,100144.32
2022-11-24T18:56:33.042Z,100142.10
2022-11-24T18:59:11.450Z,100143.75
2022-11-24T19:05:05.938Z,100143.77
2022-11-24T19:07:37.738Z,100146.66
2022-11-24T19:10:23.567Z,100144.07
2022-11-24T19:13:14.161Z,100141.89
2022-11-24T19:16:22.438Z,100144.41
2022-11-24T19:19:24.844Z,100149.29
2022-11-24T19:22:03.864Z,100147.00
2022-11-24T19:28:15.723Z,100153.85
2022-11-24T19:31:18.236Z,100157.35
2022-11-24T19:45:58.599Z,100162.44
2022-11-24T19:57:31.046Z,100173.31
2022-11-24T20:00:09.992Z,100175.01
2022-11-24T20:02:40.183Z,100176.59
2022-11-24T20:09:13.828Z,100188.48
2022-11-24T20:11:46.806Z,100188.39
2022-11-24T20:15:06.181Z,100190.04
2022-11-24T20:30:12.956Z,100206.29
2022-11-24T20:45:16.842Z,100220.96
2022-11-24T21:05:14.441Z,100237.13
2022-11-24T21:11:48.863Z,100240.04
2022-11-24T21:23:27.289Z,100244.82
2022-11-24T21:30:53.339Z,100250.21
2022-11-24T21:33:28.677Z,100250.70
2022-11-24T21:39:16.770Z,100247.66
2022-11-24T22:14:19.374Z,100265.17
2022-11-24T22:25:43.203Z,100260.35
2022-11-24T22:41:25.915Z,100267.70
2022-11-24T22:48:13.060Z,100276.90
2022-11-24T22:55:07.320Z,100287.31
2022-11-24T22:58:49.866Z,100293.41
2022-11-24T23:10:12.691Z,100291.23
2022-11-24T23:12:51.766Z,100290.78
2022-11-24T23:15:22.249Z,100289.83
2022-11-24T23:31:12.085Z,100294.88
2022-11-24T23:42:36.085Z,100294.05
2022-11-24T23:54:07.876Z,100293.42
2022-11-24T23:56:43.613Z,100290.38
2022-11-24T23:59:14.278Z,100292.63
